Time;durP1;ratioP1;P1;durP2;ratioP2;P2;SDS_P1;SDS_P2;PMS_P1;PMS_P2;Temp;Humidity;BMP_temperature;BMP_pressure;BME280_temperature;BME280_humidity;BME280_pressure;Samples;Min_cycle;Max_cycle;Signal;HPM_P1;HPM_P2
2021/03/31 00:01:30;;;;;;;85.93;48.15;;;10.50;94.20;;;;;;5093135;28;20478;-71
2021/03/31 00:03:56;;;;;;;82.60;48.78;;;10.50;94.40;;;;;;5093194;28;20029;-71
2021/03/31 00:06:22;;;;;;;86.07;49.85;;;10.50;94.90;;;;;;5093183;28;20107;-70
2021/03/31 00:08:48;;;;;;;89.35;54.40;;;10.50;94.60;;;;;;5092854;28;20525;-70
2021/03/31 00:11:14;;;;;;;94.93;56.13;;;10.40;94.80;;;;;;5092687;28;20056;-71
2021/03/31 00:13:40;;;;;;;118.15;66.43;;;10.40;94.80;;;;;;5093138;28;20069;-72
2021/03/31 00:16:06;;;;;;;110.32;63.08;;;10.30;94.80;;;;;;5093078;28;20464;-72
2021/03/31 00:18:32;;;;;;;107.88;61.47;;;10.30;94.40;;;;;;5093048;28;20028;-72
2021/03/31 00:20:58;;;;;;;119.30;63.45;;;10.20;94.80;;;;;;5093001;28;20111;-70
2021/03/31 00:23:27;;;;;;;107.55;57.70;;;10.20;95.30;;;;;;5092970;28;20457;-70
2021/03/31 00:25:54;;;;;;;100.35;52.72;;;10.10;94.70;;;;;;5093056;28;20020;-70
2021/03/31 00:28:20;;;;;;;105.70;55.13;;;10.10;93.90;;;;;;5092973;28;20020;-70
2021/03/31 00:30:47;;;;;;;94.10;53.90;;;10.10;93.70;;;;;;5092984;28;20028;-71
2021/03/31 00:33:13;;;;;;;107.00;57.85;;;10.00;93.30;;;;;;5091655;28;20028;-70
2021/03/31 00:35:41;;;;;;;105.47;58.05;;;10.00;93.40;;;;;;5092902;28;20096;-71
2021/03/31 00:38:07;;;;;;;100.63;56.08;;;10.00;92.60;;;;;;5092572;28;20403;-70
2021/03/31 00:40:42;;;;;;;111.25;62.78;;;9.90;92.70;;;;;;5091575;28;20115;-71
2021/03/31 00:43:08;;;;;;;126.85;71.00;;;9.90;93.60;;;;;;5092713;28;20476;-70
2021/03/31 00:45:34;;;;;;;139.32;80.28;;;9.90;94.80;;;;;;5095466;28;20081;-70
2021/03/31 00:48:00;;;;;;;135.57;76.03;;;10.00;95.30;;;;;;5096681;28;20031;-71
2021/03/31 00:50:27;;;;;;;127.20;73.05;;;9.90;95.40;;;;;;5095361;28;20020;-71
2021/03/31 00:52:55;;;;;;;110.10;64.13;;;9.90;95.20;;;;;;5096326;28;20383;-71
2021/03/31 00:55:24;;;;;;;115.35;67.15;;;9.80;95.10;;;;;;5096611;28;20473;-71
2021/03/31 00:57:51;;;;;;;134.25;71.85;;;9.70;94.80;;;;;;5095239;28;20024;-70
2021/03/31 01:00:18;;;;;;;116.32;65.35;;;9.70;95.60;;;;;;5095150;28;20028;-70
2021/03/31 01:02:44;;;;;;;123.88;70.00;;;9.70;95.50;;;;;;5096391;28;20166;-69
2021/03/31 01:05:14;;;;;;;129.13;74.55;;;9.70;95.70;;;;;;5096344;28;20028;-69
2021/03/31 01:07:40;;;;;;;119.97;67.90;;;9.70;95.60;;;;;;5095019;28;20024;-69
2021/03/31 01:10:08;;;;;;;126.00;70.55;;;9.70;94.80;;;;;;5094966;28;20030;-69
2021/03/31 01:12:55;;;;;;;147.18;80.10;;;9.60;94.80;;;;;;5095845;28;20552;-69
2021/03/31 01:15:28;;;;;;;132.90;71.97;;;9.60;94.00;;;;;;5096226;28;20031;-70
2021/03/31 01:18:20;;;;;;;149.70;84.63;;;9.40;93.60;;;;;;5096183;28;20024;-70
2021/03/31 01:21:16;;;;;;;147.65;83.45;;;9.30;94.60;;;;;;5095897;28;20398;-70
2021/03/31 01:23:57;;;;;;;171.20;93.65;;;9.30;95.20;;;;;;5096071;28;20040;-70
2021/03/31 01:26:45;;;;;;;167.73;93.43;;;9.30;95.70;;;;;;5094775;28;20063;-69
2021/03/31 01:29:36;;;;;;;177.02;94.72;;;9.20;96.30;;;;;;5094662;28;20079;-69
2021/03/31 01:32:39;;;;;;;162.77;86.97;;;9.20;96.20;;;;;;5096023;28;20028;-69
2021/03/31 01:35:14;;;;;;;137.15;76.70;;;9.10;96.30;;;;;;5095775;28;20028;-69
2021/03/31 01:37:49;;;;;;;141.57;76.03;;;9.10;96.10;;;;;;5095528;28;20027;-69
2021/03/31 01:40:17;;;;;;;140.05;75.05;;;9.10;96.30;;;;;;5095932;28;20085;-69
2021/03/31 01:43:05;;;;;;;134.25;74.90;;;9.10;96.10;;;;;;5095671;28;20432;-69
2021/03/31 01:45:33;;;;;;;144.88;79.88;;;9.10;95.90;;;;;;5095696;28;20020;-69
2021/03/31 01:48:04;;;;;;;141.93;78.75;;;9.10;95.70;;;;;;5095561;28;20044;-69
2021/03/31 01:50:31;;;;;;;;;;;9.00;95.50;;;;;;5094786;28;20051;-69
2021/03/31 01:52:59;;;;;;;145.52;79.72;;;8.90;96.10;;;;;;5095788;28;19911;-69
2021/03/31 01:55:26;;;;;;;155.35;85.15;;;8.90;96.60;;;;;;5095126;28;20024;-72
2021/03/31 01:57:53;;;;;;;154.13;82.85;;;8.80;96.70;;;;;;5094008;28;20020;-72
2021/03/31 02:00:20;;;;;;;139.75;74.22;;;8.90;96.80;;;;;;5095333;28;20028;-72
2021/03/31 02:02:53;;;;;;;139.90;76.57;;;8.80;97.20;;;;;;5093896;28;20377;-69
2021/03/31 02:05:20;;;;;;;141.43;73.47;;;8.80;96.10;;;;;;5095278;28;20027;-71
2021/03/31 02:07:47;;;;;;;132.43;74.00;;;8.90;95.20;;;;;;5094909;28;20110;-70
2021/03/31 02:10:14;;;;;;;145.82;75.70;;;8.80;94.70;;;;;;5095136;28;20067;-70
2021/03/31 02:12:42;;;;;;;133.23;74.03;;;8.80;94.80;;;;;;5093192;28;20054;-70
2021/03/31 02:15:12;;;;;;;112.28;62.50;;;8.80;94.50;;;;;;5095076;28;20036;-71
2021/03/31 02:17:39;;;;;;;136.43;77.68;;;8.70;93.70;;;;;;5095022;28;20091;-69
2021/03/31 02:20:06;;;;;;;141.20;77.18;;;8.60;95.40;;;;;;5093604;28;20393;-70
2021/03/31 02:22:33;;;;;;;124.60;73.50;;;8.50;95.80;;;;;;5094386;28;20043;-69
2021/03/31 02:25:00;;;;;;;126.03;71.32;;;8.50;96.10;;;;;;5094868;28;20024;-70
2021/03/31 02:27:26;;;;;;;136.10;75.45;;;8.40;96.70;;;;;;5093447;28;20052;-70
2021/03/31 02:29:53;;;;;;;156.10;84.20;;;8.30;97.80;;;;;;5094382;28;20411;-70
2021/03/31 02:32:22;;;;;;;151.90;80.40;;;8.20;98.50;;;;;;5094779;28;20531;-71
2021/03/31 02:34:52;;;;;;;122.32;66.72;;;8.30;98.70;;;;;;5093338;28;20126;-71
2021/03/31 02:37:19;;;;;;;118.00;65.75;;;8.20;98.20;;;;;;5093428;28;20036;-70
2021/03/31 02:39:48;;;;;;;108.45;58.95;;;8.20;98.00;;;;;;5094548;28;20275;-70
2021/03/31 02:42:16;;;;;;;112.32;60.60;;;8.20;98.00;;;;;;5094502;28;20426;-70
2021/03/31 02:44:45;;;;;;;102.78;56.17;;;8.20;98.20;;;;;;5094491;28;20020;-71
2021/03/31 02:47:15;;;;;;;105.38;55.72;;;8.20;98.50;;;;;;5094403;28;20103;-69
2021/03/31 02:49:45;;;;;;;124.57;71.28;;;8.20;97.50;;;;;;5094624;28;20028;-70
2021/03/31 02:52:12;;;;;;;138.27;73.05;;;8.20;96.20;;;;;;5094067;28;20153;-70
2021/03/31 02:54:41;;;;;;;128.82;68.10;;;8.20;96.10;;;;;;5092933;28;20021;-69
2021/03/31 02:57:11;;;;;;;126.82;69.75;;;8.20;96.50;;;;;;5093926;28;20456;-69
2021/03/31 02:59:41;;;;;;;132.60;69.00;;;8.10;96.10;;;;;;5094255;28;20107;-70
2021/03/31 03:02:08;;;;;;;122.80;66.25;;;8.20;96.10;;;;;;5094075;28;20040;-71
2021/03/31 03:04:35;;;;;;;127.30;70.25;;;8.20;95.80;;;;;;5094141;28;20024;-71
2021/03/31 03:07:01;;;;;;;124.72;66.25;;;8.30;95.80;;;;;;5093404;28;20108;-72
2021/03/31 03:09:28;;;;;;;129.40;68.85;;;8.30;96.20;;;;;;5093746;28;20062;-72
2021/03/31 03:11:54;;;;;;;115.25;63.10;;;8.30;95.70;;;;;;5092499;28;20401;-73
2021/03/31 03:14:21;;;;;;;105.82;59.00;;;8.40;95.90;;;;;;5094093;28;20020;-72
2021/03/31 03:16:47;;;;;;;106.43;60.83;;;8.40;95.90;;;;;;5092557;28;20545;-72
2021/03/31 03:19:13;;;;;;;119.82;62.42;;;8.40;95.50;;;;;;5092602;28;20044;-72
2021/03/31 03:21:39;;;;;;;100.35;56.00;;;8.30;95.60;;;;;;5093447;28;20110;-72
2021/03/31 03:24:12;;;;;;;101.18;56.40;;;8.20;96.60;;;;;;5093736;28;20562;-70
2021/03/31 03:26:39;;;;;;;96.57;53.63;;;8.30;96.90;;;;;;5093708;28;20031;-71
2021/03/31 03:29:07;;;;;;;88.25;51.28;;;8.30;97.20;;;;;;5093959;28;20025;-70
2021/03/31 03:31:35;;;;;;;90.53;45.45;;;8.30;96.70;;;;;;5093632;28;20031;-71
2021/03/31 03:34:06;;;;;;;85.22;46.90;;;8.40;96.90;;;;;;5092259;28;20024;-70
2021/03/31 03:36:32;;;;;;;90.07;49.92;;;8.40;96.80;;;;;;5093346;28;20445;-69
2021/03/31 03:38:59;;;;;;;102.32;52.13;;;8.40;96.90;;;;;;5093557;28;20032;-69
2021/03/31 03:41:24;;;;;;;85.55;48.47;;;8.40;96.60;;;;;;5092075;28;20038;-69
2021/03/31 03:43:55;;;;;;;78.95;40.38;;;8.40;96.60;;;;;;5092213;28;20516;-69
2021/03/31 03:46:21;;;;;;;79.70;40.30;;;8.50;96.20;;;;;;5093422;28;20026;-70
2021/03/31 03:48:48;;;;;;;85.95;37.17;;;8.50;96.30;;;;;;5093371;28;20024;-72
2021/03/31 03:51:14;;;;;;;85.35;37.40;;;8.50;96.50;;;;;;5092123;28;20024;-72
2021/03/31 03:53:40;;;;;;;87.97;41.13;;;8.60;97.00;;;;;;5092029;28;20111;-71
2021/03/31 03:56:11;;;;;;;88.47;40.15;;;8.60;96.80;;;;;;5093026;28;20472;-72
2021/03/31 03:58:38;;;;;;;89.85;49.40;;;8.60;97.20;;;;;;5091989;28;20024;-72
2021/03/31 04:01:04;;;;;;;90.28;48.72;;;8.70;96.90;;;;;;5091875;28;20393;-72
2021/03/31 04:03:29;;;;;;;95.15;50.50;;;8.70;96.70;;;;;;5093263;28;20024;-72
2021/03/31 04:05:55;;;;;;;103.68;53.88;;;8.70;96.60;;;;;;5093192;28;20043;-72
2021/03/31 04:08:21;;;;;;;98.10;51.63;;;8.70;96.80;;;;;;5093184;28;20020;-71
2021/03/31 04:10:52;;;;;;;85.85;47.88;;;8.70;96.70;;;;;;5092836;28;20046;-71
2021/03/31 04:13:19;;;;;;;91.05;47.30;;;8.70;96.60;;;;;;5092659;28;20105;-73
2021/03/31 04:15:47;;;;;;;91.20;46.95;;;8.80;96.50;;;;;;5092778;28;20024;-72
2021/03/31 04:18:15;;;;;;;90.93;47.05;;;8.80;96.30;;;;;;5094878;28;20027;-72
2021/03/31 04:20:43;;;;;;;79.82;43.65;;;8.80;96.30;;;;;;5097138;28;20081;-71
2021/03/31 04:23:09;;;;;;;79.50;42.17;;;8.80;96.80;;;;;;5095854;28;20036;-72
2021/03/31 04:25:35;;;;;;;66.05;35.67;;;8.80;96.50;;;;;;5096840;28;20032;-71
2021/03/31 04:28:06;;;;;;;63.38;32.70;;;8.80;96.20;;;;;;5097077;28;20020;-72
2021/03/31 04:30:33;;;;;;;61.58;30.80;;;8.80;96.10;;;;;;5097136;28;20035;-71
2021/03/31 04:33:00;;;;;;;58.05;31.67;;;8.80;96.20;;;;;;5104638;28;20384;-72
2021/03/31 04:35:26;;;;;;;66.80;33.95;;;8.90;96.40;;;;;;5100493;28;20044;-72
2021/03/31 04:37:52;;;;;;;74.30;36.13;;;9.00;96.30;;;;;;5095551;28;20060;-72
2021/03/31 04:40:20;;;;;;;61.42;32.72;;;9.00;96.30;;;;;;5095554;28;20077;-72
2021/03/31 04:42:46;;;;;;;63.10;32.13;;;9.10;96.30;;;;;;5096760;28;20042;-72
2021/03/31 04:45:13;;;;;;;83.07;40.15;;;9.20;95.80;;;;;;5096788;28;20024;-71
2021/03/31 04:47:40;;;;;;;84.13;41.83;;;9.20;95.80;;;;;;5096741;28;20410;-72
2021/03/31 04:50:09;;;;;;;77.90;41.13;;;9.30;95.80;;;;;;5096672;28;20161;-71
2021/03/31 04:52:35;;;;;;;77.60;40.53;;;9.40;95.80;;;;;;5095340;28;20535;-72
2021/03/31 04:55:01;;;;;;;82.63;40.75;;;9.40;95.60;;;;;;5096597;28;20028;-71
2021/03/31 04:57:27;;;;;;;77.05;40.35;;;9.40;95.40;;;;;;5096240;28;20031;-70
2021/03/31 04:59:53;;;;;;;77.70;38.63;;;9.50;95.30;;;;;;5096472;28;20020;-70
2021/03/31 05:02:18;;;;;;;74.07;39.53;;;9.60;95.40;;;;;;5096352;28;20032;-71
2021/03/31 05:04:44;;;;;;;90.78;41.90;;;9.70;94.90;;;;;;5095106;28;20035;-70
2021/03/31 05:07:10;;;;;;;98.18;38.35;;;9.80;94.80;;;;;;5094990;28;20027;-70
2021/03/31 05:09:36;;;;;;;68.05;33.63;;;9.90;94.70;;;;;;5096344;28;20060;-70
2021/03/31 05:12:05;;;;;;;64.47;34.63;;;9.90;94.90;;;;;;5096016;28;20055;-71
2021/03/31 05:17:54;;;;;;;81.43;39.20;;;10.00;95.50;;;;;;5093870;28;20443;-72
2021/03/31 05:20:19;;;;;;;103.35;50.22;;;10.00;95.70;;;;;;5094745;28;20055;-71
2021/03/31 05:22:45;;;;;;;84.38;44.50;;;10.10;95.90;;;;;;5095993;28;20085;-70
2021/03/31 05:25:12;;;;;;;106.43;58.92;;;10.10;95.80;;;;;;5095744;28;20101;-70
2021/03/31 05:27:38;;;;;;;129.20;72.35;;;10.20;95.40;;;;;;5095960;28;20107;-71
2021/03/31 05:30:06;;;;;;;88.43;51.53;;;10.20;95.20;;;;;;5114777;28;20149;-71
2021/03/31 05:32:47;;;;;;;68.28;42.90;;;10.30;95.30;;;;;;5115937;28;20032;-72
2021/03/31 05:35:13;;;;;;;76.60;45.00;;;10.30;95.60;;;;;;5116163;28;20031;-71
2021/03/31 05:37:39;;;;;;;65.95;44.67;;;10.40;95.50;;;;;;5116142;28;20051;-71
2021/03/31 05:40:06;;;;;;;87.70;48.17;;;10.40;95.40;;;;;;5116175;28;20463;-72
2021/03/31 05:42:33;;;;;;;125.10;59.40;;;10.50;95.30;;;;;;5115984;28;20028;-71
2021/03/31 05:45:06;;;;;;;104.10;60.15;;;10.50;95.00;;;;;;5114282;28;20073;-72
2021/03/31 05:47:37;;;;;;;107.53;62.10;;;10.60;94.60;;;;;;5114398;28;20030;-71
2021/03/31 05:50:09;;;;;;;107.90;55.20;;;10.80;94.70;;;;;;5114646;28;20661;-70
2021/03/31 05:52:35;;;;;;;;;;;10.80;94.70;;;;;;5116245;28;20114;-70
2021/03/31 05:55:02;;;;;;;88.65;50.97;;;11.00;94.70;;;;;;5116087;28;20029;-70
2021/03/31 05:57:48;;;;;;;92.18;52.58;;;11.00;95.10;;;;;;5111398;28;20027;-70
2021/03/31 06:00:20;;;;;;;97.65;54.67;;;11.10;94.80;;;;;;5114462;28;20031;-71
2021/03/31 06:02:47;;;;;;;93.40;55.50;;;11.20;94.80;;;;;;5115591;28;20130;-71
2021/03/31 06:05:14;;;;;;;89.15;54.97;;;11.20;94.60;;;;;;5115649;28;20031;-71
2021/03/31 06:07:48;;;;;;;92.05;57.00;;;11.30;94.60;;;;;;5115803;28;20463;-70
2021/03/31 06:10:17;;;;;;;97.90;55.97;;;11.40;94.30;;;;;;5115881;28;20368;-71
2021/03/31 06:13:02;;;;;;;85.82;53.80;;;11.60;94.50;;;;;;5113785;28;20087;-70
2021/03/31 06:15:39;;;;;;;78.07;50.70;;;11.60;93.80;;;;;;5114113;28;20383;-70
2021/03/31 06:18:08;;;;;;;83.50;51.00;;;11.70;93.50;;;;;;5115432;28;20181;-71
2021/03/31 06:20:41;;;;;;;87.20;52.00;;;11.80;93.60;;;;;;5115418;28;20061;-68
2021/03/31 06:28:28;;;;;;;88.70;54.90;;;12.00;93.40;;;;;;5115147;28;20027;-70
2021/03/31 06:31:15;;;;;;;88.95;53.58;;;12.00;93.00;;;;;;5115038;28;20468;-71
2021/03/31 06:33:43;;;;;;;92.15;56.97;;;12.10;92.30;;;;;;5108036;28;20030;-71
2021/03/31 06:36:12;;;;;;;123.57;87.90;;;12.20;92.10;;;;;;5098676;28;20031;-72
2021/03/31 06:38:47;;;;;;;104.75;73.25;;;12.20;92.30;;;;;;5092732;28;20077;-73
2021/03/31 06:41:36;;;;;;;92.05;57.42;;;12.20;92.10;;;;;;5092184;28;20028;-73
2021/03/31 06:44:16;;;;;;;90.28;55.38;;;12.30;91.90;;;;;;5094615;28;20032;-71
2021/03/31 06:47:02;;;;;;;106.28;69.57;;;12.50;92.30;;;;;;5103020;28;20035;-70
2021/03/31 06:49:28;;;;;;;119.20;75.07;;;12.50;92.70;;;;;;5106720;28;20027;-70
2021/03/31 06:52:09;;;;;;;114.68;66.60;;;12.60;92.50;;;;;;5095267;28;20039;-70
2021/03/31 06:54:46;;;;;;;107.87;66.90;;;12.70;92.50;;;;;;5094993;28;20023;-71
2021/03/31 06:57:13;;;;;;;101.72;61.20;;;12.80;92.20;;;;;;5092465;28;20028;-71
2021/03/31 06:59:40;;;;;;;103.00;61.65;;;12.80;92.10;;;;;;5094175;28;20045;-72
2021/03/31 07:02:06;;;;;;;156.27;97.95;;;12.90;91.70;;;;;;5092592;28;20123;-72
2021/03/31 07:04:34;;;;;;;119.43;71.85;;;12.90;91.60;;;;;;5092767;28;20067;-72
2021/03/31 07:07:08;;;;;;;115.60;66.97;;;13.00;91.10;;;;;;5092620;28;20066;-72
2021/03/31 07:09:38;;;;;;;105.63;66.18;;;13.10;90.30;;;;;;5093687;28;20032;-72
2021/03/31 07:12:23;;;;;;;103.15;66.38;;;13.20;90.50;;;;;;5092128;28;20480;-72
2021/03/31 07:14:50;;;;;;;96.30;59.65;;;13.30;90.20;;;;;;5093878;28;20036;-71
2021/03/31 07:17:24;;;;;;;86.20;54.45;;;13.50;89.60;;;;;;5092505;28;20036;-72
2021/03/31 07:19:51;;;;;;;87.07;53.58;;;13.60;89.50;;;;;;5092516;28;20513;-72
2021/03/31 07:22:17;;;;;;;83.10;51.92;;;13.80;88.00;;;;;;5092415;28;20060;-71
2021/03/31 07:24:43;;;;;;;91.18;53.42;;;13.90;85.60;;;;;;5093523;28;20024;-71
2021/03/31 07:27:12;;;;;;;88.68;53.88;;;14.10;85.30;;;;;;5093556;28;20507;-71
2021/03/31 07:30:05;;;;;;;83.93;51.50;;;14.10;85.60;;;;;;5093880;28;20028;-73
2021/03/31 07:32:40;;;;;;;81.63;47.15;;;14.30;83.80;;;;;;5093136;28;20036;-73
2021/03/31 07:35:08;;;;;;;75.53;45.47;;;14.40;82.00;;;;;;5092198;28;20028;-73
2021/03/31 07:37:35;;;;;;;72.78;44.05;;;14.40;79.80;;;;;;5093349;28;20080;-72
2021/03/31 07:40:06;;;;;;;69.80;42.60;;;14.60;78.50;;;;;;5092055;28;20654;-73
2021/03/31 07:42:32;;;;;;;76.00;46.80;;;14.80;80.70;;;;;;5093314;28;20032;-71
2021/03/31 07:45:01;;;;;;;72.85;46.55;;;14.90;80.00;;;;;;5092013;28;20032;-71
2021/03/31 07:47:28;;;;;;;68.20;44.42;;;15.00;78.90;;;;;;5093243;28;20042;-70
2021/03/31 07:49:56;;;;;;;84.40;53.90;;;15.10;76.90;;;;;;5091808;28;20082;-72
2021/03/31 07:52:42;;;;;;;74.95;44.85;;;15.10;78.30;;;;;;5092852;28;20107;-71
2021/03/31 07:55:26;;;;;;;66.65;41.35;;;15.20;75.20;;;;;;5092958;28;20164;-73
2021/03/31 07:58:12;;;;;;;61.33;41.17;;;15.20;71.70;;;;;;5093182;28;20034;-72
2021/03/31 08:00:52;;;;;;;74.38;48.60;;;15.30;73.50;;;;;;5091346;28;20036;-71
2021/03/31 08:03:21;;;;;;;74.00;47.03;;;15.30;75.80;;;;;;5091621;28;20138;-71
2021/03/31 08:06:10;;;;;;;67.82;43.75;;;15.50;76.80;;;;;;5092805;28;20482;-70
2021/03/31 08:08:37;;;;;;;63.25;43.40;;;15.60;77.10;;;;;;5091729;28;20040;-73
2021/03/31 08:11:05;;;;;;;69.35;43.40;;;15.80;74.30;;;;;;5091518;28;20039;-70
2021/03/31 08:13:34;;;;;;;60.60;39.30;;;16.00;74.50;;;;;;5091093;28;20447;-69
2021/03/31 08:16:20;;;;;;;63.70;39.20;;;16.20;70.60;;;;;;5091762;28;20047;-71
2021/03/31 08:18:47;;;;;;;55.63;36.55;;;16.30;74.00;;;;;;5093045;28;20028;-74
2021/03/31 08:21:26;;;;;;;54.30;33.20;;;16.50;70.10;;;;;;5092813;28;20025;-70
2021/03/31 08:23:54;;;;;;;41.08;27.13;;;16.80;69.80;;;;;;5092949;28;20028;-71
2021/03/31 08:26:35;;;;;;;57.85;36.95;;;16.60;65.10;;;;;;5091485;28;20544;-72
2021/03/31 08:29:21;;;;;;;56.30;35.47;;;16.80;67.30;;;;;;5092790;28;20500;-71
2021/03/31 08:32:01;;;;;;;59.95;37.15;;;17.10;65.50;;;;;;5084728;28;20051;-71
2021/03/31 08:34:31;;;;;;;42.72;29.88;;;17.20;65.70;;;;;;5089991;28;20053;-71
2021/03/31 08:37:01;;;;;;;46.03;29.20;;;17.50;64.60;;;;;;5091398;28;20028;-72
2021/03/31 08:39:26;;;;;;;45.33;29.23;;;17.40;64.00;;;;;;5096925;28;20118;-73
2021/03/31 08:41:56;;;;;;;46.92;29.05;;;17.60;65.10;;;;;;5112797;28;20417;-72
2021/03/31 08:44:36;;;;;;;43.97;29.00;;;17.70;63.70;;;;;;5108650;28;20492;-70
2021/03/31 08:47:10;;;;;;;37.67;27.73;;;18.00;63.30;;;;;;5107349;28;20430;-70
2021/03/31 08:49:37;;;;;;;45.05;29.50;;;18.30;61.70;;;;;;5093575;28;20060;-70
2021/03/31 08:52:06;;;;;;;45.90;28.77;;;18.60;62.20;;;;;;5092977;28;20031;-69
2021/03/31 08:54:36;;;;;;;46.78;29.52;;;18.80;60.60;;;;;;5091669;28;20458;-68
2021/03/31 08:57:05;;;;;;;46.47;32.63;;;19.00;60.60;;;;;;5100563;28;20028;-69
2021/03/31 08:59:36;;;;;;;42.58;30.70;;;19.00;58.10;;;;;;5112879;28;20036;-70
2021/03/31 09:02:03;;;;;;;46.20;30.95;;;19.30;59.10;;;;;;5112816;28;20036;-69
2021/03/31 09:04:31;;;;;;;52.08;29.58;;;19.40;58.20;;;;;;5111944;28;20031;-69
2021/03/31 09:06:58;;;;;;;46.50;29.73;;;19.30;58.70;;;;;;5103458;28;20357;-72
2021/03/31 09:09:30;;;;;;;39.95;28.83;;;19.60;57.10;;;;;;5096245;28;20024;-70
2021/03/31 09:15:02;;;;;;;36.70;26.48;;;20.00;55.50;;;;;;5096212;28;20416;-70
2021/03/31 09:17:33;;;;;;;44.72;27.73;;;20.10;54.30;;;;;;5096219;28;20028;-72
2021/03/31 09:20:05;;;;;;;39.10;25.45;;;20.30;53.50;;;;;;5096408;28;20038;-70
2021/03/31 09:22:32;;;;;;;43.10;23.60;;;20.40;54.20;;;;;;5094471;28;20036;-70
2021/03/31 09:25:10;;;;;;;41.35;23.90;;;20.60;53.70;;;;;;5094726;28;20184;-72
2021/03/31 09:27:37;;;;;;;46.70;23.15;;;20.80;54.10;;;;;;5094694;28;20361;-71
2021/03/31 09:30:12;;;;;;;34.63;22.50;;;21.00;52.80;;;;;;5111821;28;20028;-72
2021/03/31 09:32:42;;;;;;;36.15;22.63;;;21.20;51.20;;;;;;5109013;28;20034;-72
2021/03/31 09:35:16;;;;;;;29.47;21.00;;;21.10;51.10;;;;;;5094203;28;20077;-73
2021/03/31 09:37:48;;;;;;;25.63;17.00;;;20.70;51.10;;;;;;5094372;28;20339;-71
2021/03/31 09:40:29;;;;;;;28.00;16.75;;;20.50;48.20;;;;;;5095869;28;20368;-70
2021/03/31 09:42:59;;;;;;;32.45;19.08;;;20.70;49.40;;;;;;5095610;28;20040;-74
2021/03/31 09:45:30;;;;;;;33.47;19.43;;;20.70;51.40;;;;;;5095548;28;20039;-74
2021/03/31 09:47:57;;;;;;;30.75;19.45;;;20.80;50.90;;;;;;5094038;28;20032;-75
2021/03/31 09:50:25;;;;;;;31.83;19.08;;;20.70;48.00;;;;;;5093771;28;20119;-72
2021/03/31 09:52:59;;;;;;;31.83;19.13;;;20.70;48.50;;;;;;5109403;28;20032;-72
2021/03/31 09:55:26;;;;;;;18.58;11.82;;;21.20;51.10;;;;;;5094923;28;20111;-72
2021/03/31 09:57:53;;;;;;;18.63;10.20;;;21.50;48.30;;;;;;5095223;28;20028;-71
2021/03/31 10:00:20;;;;;;;20.15;11.80;;;21.30;48.30;;;;;;5093712;28;20053;-72
2021/03/31 10:02:47;;;;;;;22.13;14.10;;;21.20;50.70;;;;;;5093546;28;20123;-70
2021/03/31 10:05:19;;;;;;;18.63;11.75;;;21.40;48.90;;;;;;5094971;28;20024;-70
2021/03/31 10:07:58;;;;;;;16.70;12.30;;;;;;;;;;5095075;28;20024;-72
2021/03/31 10:10:45;;;;;;;20.08;13.13;;;21.70;49.60;;;;;;5095180;28;20043;-71
2021/03/31 10:13:15;;;;;;;16.73;12.40;;;22.10;50.00;;;;;;5095024;28;20052;-71
2021/03/31 10:15:54;;;;;;;17.08;11.23;;;22.20;49.90;;;;;;5094916;28;20020;-74
2021/03/31 10:18:21;;;;;;;16.23;10.77;;;22.20;51.20;;;;;;5094664;28;20024;-74
2021/03/31 10:20:48;;;;;;;21.70;14.80;;;22.30;48.80;;;;;;5093773;28;20386;-70
2021/03/31 10:23:30;;;;;;;18.95;11.60;;;22.20;47.30;;;;;;5094706;28;20426;-71
2021/03/31 10:26:22;;;;;;;20.88;11.85;;;22.80;47.70;;;;;;5094524;28;20024;-73
2021/03/31 10:28:48;;;;;;;23.63;16.60;;;23.40;46.10;;;;;;5094669;28;20020;-72
2021/03/31 10:31:18;;;;;;;23.30;16.85;;;24.20;45.80;;;;;;5093290;28;20388;-72
2021/03/31 10:33:45;;;;;;;18.88;12.10;;;24.40;44.10;;;;;;5093182;28;20063;-71
2021/03/31 10:36:12;;;;;;;19.42;12.20;;;25.10;44.80;;;;;;5094762;28;20031;-73
2021/03/31 10:38:47;;;;;;;19.85;12.85;;;25.80;41.80;;;;;;5093372;28;20027;-74
2021/03/31 10:41:36;;;;;;;14.98;11.57;;;;;;;;;;5093874;28;20027;-72
2021/03/31 10:49:28;;;;;;;26.70;16.73;;;;;;;;;;5094693;28;20047;-74
2021/03/31 10:51:58;;;;;;;16.33;8.75;;;;;;;;;;5094738;28;20027;-72
2021/03/31 10:54:27;;;;;;;21.80;16.08;;;;;;;;;;5095093;28;20027;-75
2021/03/31 10:57:14;;;;;;;17.17;10.65;;;;;;;;;;5093140;28;20039;-74
2021/03/31 10:59:42;;;;;;;11.50;6.50;;;;;;;;;;5093762;28;20032;-75
2021/03/31 11:02:09;;;;;;;17.67;10.20;;;;;;;;;;5094313;28;20170;-71
2021/03/31 11:04:35;;;;;;;11.98;6.93;;;;;;;;;;5093912;28;20043;-70
2021/03/31 11:07:02;;;;;;;8.40;5.55;;;;;;;;;;5093900;28;20020;-72
2021/03/31 11:09:29;;;;;;;8.82;5.28;;;;;;;;;;5093909;28;20422;-71
2021/03/31 11:11:55;;;;;;;6.00;4.63;;;;;;;;;;5093679;28;20055;-70
2021/03/31 11:14:22;;;;;;;7.32;4.70;;;;;;;;;;5093764;28;20027;-75
2021/03/31 11:25:50;;;;;;;5.30;4.10;;;31.50;30.50;;;;;;5038217;28;20102;-71
2021/03/31 11:27:53;;;;;;;6.32;4.60;;;32.40;29.70;;;;;;5084171;28;20377;-71
2021/03/31 11:30:19;;;;;;;11.30;5.65;;;32.00;30.10;;;;;;5092198;28;20077;-72
2021/03/31 11:32:45;;;;;;;10.90;4.78;;;31.80;30.10;;;;;;5092175;28;20054;-72
2021/03/31 11:35:12;;;;;;;7.30;5.38;;;32.10;30.10;;;;;;5093128;28;20460;-71
2021/03/31 11:37:38;;;;;;;6.50;4.60;;;31.80;30.30;;;;;;5093734;28;20020;-70
2021/03/31 11:40:13;;;;;;;4.75;4.22;;;32.80;29.70;;;;;;5093229;28;20115;-72
2021/03/31 11:42:39;;;;;;;7.22;4.40;;;34.20;28.30;;;;;;5091349;28;20068;-69
2021/03/31 11:45:05;;;;;;;13.60;4.57;;;34.70;28.50;;;;;;5111619;28;20035;-71
2021/03/31 11:47:31;;;;;;;7.05;4.30;;;34.90;28.10;;;;;;5112495;28;20463;-73
2021/03/31 11:49:57;;;;;;;5.60;4.10;;;35.00;28.20;;;;;;5102588;28;20091;-69
2021/03/31 11:52:23;;;;;;;6.75;4.63;;;35.90;27.80;;;;;;5093349;28;20024;-72
2021/03/31 11:54:48;;;;;;;8.75;5.07;;;36.00;27.80;;;;;;5091715;28;20024;-71
2021/03/31 11:57:14;;;;;;;7.30;5.13;;;33.90;29.40;;;;;;5107752;28;20032;-72
2021/03/31 11:59:40;;;;;;;12.63;4.20;;;33.70;29.30;;;;;;5111792;28;20024;-69
2021/03/31 12:02:06;;;;;;;6.25;4.15;;;34.30;28.70;;;;;;5111571;28;20040;-70
2021/03/31 12:04:32;;;;;;;14.88;4.38;;;;;;;;;;5113064;28;20027;-69
2021/03/31 12:06:58;;;;;;;8.13;4.13;;;35.80;26.70;;;;;;5112928;28;20053;-71
2021/03/31 12:09:24;;;;;;;5.30;4.35;;;36.00;27.50;;;;;;5113351;28;20016;-74
2021/03/31 12:11:50;;;;;;;6.57;4.22;;;35.60;27.40;;;;;;5111823;28;20054;-72
2021/03/31 12:14:16;;;;;;;11.70;8.30;;;35.40;27.50;;;;;;5112006;28;20455;-74
2021/03/31 12:16:42;;;;;;;12.52;5.65;;;35.60;27.50;;;;;;5112022;28;20023;-73
2021/03/31 12:19:08;;;;;;;6.65;4.90;;;35.00;28.10;;;;;;5111768;28;20088;-73
2021/03/31 12:21:34;;;;;;;8.10;5.03;;;35.90;27.20;;;;;;5113520;28;20032;-72
2021/03/31 12:23:59;;;;;;;9.48;5.03;;;35.40;27.70;;;;;;5111920;28;20020;-73
2021/03/31 12:26:25;;;;;;;16.83;4.90;;;34.20;27.70;;;;;;5113281;28;20073;-73
2021/03/31 12:28:54;;;;;;;5.68;5.18;;;33.10;28.00;;;;;;5111786;28;20073;-72
2021/03/31 12:31:20;;;;;;;8.38;4.90;;;34.20;27.90;;;;;;5111917;28;20024;-71
2021/03/31 12:33:46;;;;;;;14.85;6.45;;;34.60;27.80;;;;;;5112738;28;20080;-72
2021/03/31 12:36:12;;;;;;;7.97;4.63;;;36.00;28.00;;;;;;5113029;28;20509;-70
2021/03/31 12:38:38;;;;;;;7.90;5.28;;;36.40;26.80;;;;;;5113551;28;20369;-72
2021/03/31 12:41:04;;;;;;;9.10;5.25;;;35.60;26.40;;;;;;5114835;28;20057;-72
2021/03/31 12:43:31;;;;;;;9.77;5.38;;;37.00;26.40;;;;;;5117197;28;20475;-70
2021/03/31 12:45:57;;;;;;;5.90;4.53;;;36.50;26.90;;;;;;5117220;28;20035;-72
2021/03/31 12:48:24;;;;;;;9.75;4.95;;;35.50;26.40;;;;;;5115945;28;20020;-71
2021/03/31 12:50:53;;;;;;;6.38;4.13;;;36.50;27.10;;;;;;5114892;28;20047;-71
2021/03/31 12:53:24;;;;;;;7.00;4.70;;;37.60;26.10;;;;;;5116917;28;20038;-70
2021/03/31 12:55:51;;;;;;;12.05;4.95;;;38.30;26.20;;;;;;5116578;28;20456;-70
2021/03/31 12:58:20;;;;;;;6.65;4.60;;;39.10;25.90;;;;;;5115302;28;20032;-70
2021/03/31 13:00:47;;;;;;;10.27;4.43;;;38.50;24.90;;;;;;5115404;28;20027;-71
2021/03/31 13:03:13;;;;;;;8.30;4.68;;;36.80;26.00;;;;;;5115233;28;20443;-71
2021/03/31 13:05:40;;;;;;;8.88;5.45;;;35.90;26.80;;;;;;5116994;28;20030;-70
2021/03/31 13:08:10;;;;;;;9.32;5.30;;;35.20;26.90;;;;;;5116653;28;20111;-72
2021/03/31 13:10:36;;;;;;;7.97;5.10;;;35.00;27.00;;;;;;5117055;28;20107;-72
2021/03/31 13:13:21;;;;;;;7.88;5.90;;;34.40;27.80;;;;;;5114940;28;20252;-73
2021/03/31 13:27:05;;;;;;;7.47;4.82;;;37.20;26.20;;;;;;5116237;28;20062;-72